createdAt,value
2023-04-10T00:00:38.168Z,8.25
2023-04-10T00:03:06.111Z,7.45
2023-04-10T00:05:33.347Z,8.15
2023-04-10T00:08:00.970Z,7.32
2023-04-10T00:10:30.800Z,7.55
2023-04-10T00:12:59.153Z,7.03
2023-04-10T00:15:26.112Z,7.88
2023-04-10T00:17:55.452Z,7.00
2023-04-10T00:20:23.494Z,7.65
2023-04-10T00:22:51.540Z,7.28
2023-04-10T00:25:18.828Z,7.07
2023-04-10T00:27:46.055Z,6.32
2023-04-10T00:30:12.975Z,6.13
2023-04-10T00:32:40.196Z,5.63
2023-04-10T00:35:09.020Z,5.85
2023-04-10T00:37:36.595Z,5.20
2023-04-10T00:40:04.900Z,4.88
2023-04-10T00:42:32.454Z,4.80
2023-04-10T00:45:00.192Z,4.60
2023-04-10T00:47:28.784Z,5.13
2023-04-10T00:49:56.273Z,4.50
2023-04-10T00:52:24.907Z,4.40
2023-04-10T00:54:52.828Z,5.05
2023-04-10T00:57:19.964Z,4.20
2023-04-10T00:59:48.421Z,5.10
2023-04-10T01:02:15.693Z,4.60
2023-04-10T01:04:42.879Z,5.15
2023-04-10T01:07:21.634Z,5.60
2023-04-10T01:10:07.262Z,5.75
2023-04-10T01:13:06.759Z,4.97
2023-04-10T01:15:48.081Z,5.20
2023-04-10T01:18:24.385Z,6.38
2023-04-10T01:20:51.420Z,5.97
2023-04-10T01:23:49.662Z,5.78
2023-04-10T01:26:20.992Z,6.40
2023-04-10T01:29:01.484Z,6.53
2023-04-10T01:31:41.750Z,6.70
2023-04-10T01:36:52.224Z,6.30
2023-04-10T01:39:21.494Z,6.20
2023-04-10T01:41:52.759Z,6.40
2023-04-10T01:44:30.070Z,6.32
2023-04-10T01:46:58.754Z,6.13
2023-04-10T01:49:27.772Z,6.40
2023-04-10T01:52:02.434Z,6.85
2023-04-10T01:54:32.828Z,6.40
2023-04-10T01:57:02.404Z,6.63
2023-04-10T01:59:31.391Z,6.57
2023-04-10T02:02:00.985Z,6.90
2023-04-10T02:07:12.912Z,6.40
2023-04-10T02:09:58.223Z,6.32
2023-04-10T02:12:36.948Z,6.43
2023-04-10T02:15:06.638Z,7.28
2023-04-10T02:17:36.239Z,6.55
2023-04-10T02:20:06.711Z,5.63
2023-04-10T02:22:34.324Z,6.05
2023-04-10T02:25:04.837Z,5.35
2023-04-10T02:27:36.454Z,5.35
2023-04-10T02:30:04.502Z,5.90
2023-04-10T02:32:33.770Z,5.60
2023-04-10T02:35:03.252Z,5.72
2023-04-10T02:37:31.393Z,5.50
2023-04-10T02:40:01.188Z,5.55
2023-04-10T02:42:34.975Z,6.00
2023-04-10T02:45:02.011Z,5.90
2023-04-10T02:47:37.032Z,5.28
2023-04-10T02:50:04.406Z,5.65
2023-04-10T02:52:35.428Z,5.40
2023-04-10T02:55:02.542Z,6.38
2023-04-10T02:57:35.066Z,5.63
2023-04-10T03:00:03.212Z,5.25
2023-04-10T03:02:35.510Z,6.18
2023-04-10T03:05:12.504Z,5.65
2023-04-10T03:07:39.476Z,6.00
2023-04-10T03:10:07.025Z,5.78
2023-04-10T03:12:34.380Z,6.05
2023-04-10T03:15:01.347Z,6.43
2023-04-10T03:17:30.373Z,6.18
2023-04-10T03:19:57.547Z,6.40
2023-04-10T03:22:25.063Z,5.82
2023-04-10T03:24:52.773Z,6.57
2023-04-10T03:27:20.060Z,6.05
2023-04-10T03:29:46.999Z,6.30
2023-04-10T03:32:14.205Z,5.75
2023-04-10T03:34:41.250Z,6.10
2023-04-10T03:37:08.310Z,6.50
2023-04-10T03:39:37.312Z,6.13
2023-04-10T03:42:04.388Z,6.90
2023-04-10T03:44:31.723Z,7.68
2023-04-10T03:46:59.021Z,7.65
2023-04-10T03:49:26.133Z,7.30
2023-04-10T03:52:01.780Z,8.98
2023-04-10T03:54:29.091Z,9.13
2023-04-10T03:56:57.959Z,9.02
2023-04-10T03:59:37.954Z,9.25
2023-04-10T04:02:10.185Z,8.98
2023-04-10T04:04:37.706Z,8.15
2023-04-10T04:07:23.230Z,9.48
2023-04-10T04:10:22.576Z,9.60
2023-04-10T04:13:08.481Z,8.80
2023-04-10T04:15:52.769Z,9.57
2023-04-10T04:18:42.482Z,10.32
2023-04-10T04:21:20.029Z,9.23
2023-04-10T04:24:04.101Z,9.95
2023-04-10T04:26:50.006Z,10.35
2023-04-10T04:29:35.405Z,9.70
2023-04-10T04:32:10.988Z,10.77
2023-04-10T04:34:55.629Z,10.73
2023-04-10T04:37:32.704Z,10.07
2023-04-10T04:40:32.337Z,9.93
2023-04-10T04:43:08.317Z,9.60
2023-04-10T04:45:47.756Z,9.15
2023-04-10T04:48:35.897Z,8.57
2023-04-10T04:51:15.611Z,8.68
2023-04-10T04:53:50.346Z,9.05
2023-04-10T04:56:36.169Z,8.52
2023-04-10T04:59:23.888Z,8.65
2023-04-10T05:02:00.481Z,9.23
2023-04-10T05:04:46.318Z,9.00
2023-04-10T05:07:42.341Z,8.85
2023-04-10T05:10:35.494Z,9.15
2023-04-10T05:13:02.506Z,10.25
2023-04-10T05:15:39.499Z,11.57
2023-04-10T05:18:23.752Z,8.82
2023-04-10T05:21:17.266Z,8.57
2023-04-10T05:24:07.003Z,7.78
2023-04-10T05:26:58.455Z,7.32
2023-04-10T05:29:44.109Z,7.72
2023-04-10T05:32:43.282Z,7.60
2023-04-10T05:35:26.089Z,6.15
2023-04-10T05:38:11.354Z,7.03
2023-04-10T05:40:46.583Z,6.32
2023-04-10T05:43:32.429Z,6.25
2023-04-10T05:46:08.568Z,10.70
2023-04-10T05:48:49.004Z,6.45
2023-04-10T05:51:42.530Z,6.18
2023-04-10T05:54:18.542Z,6.78
2023-04-10T05:57:25.989Z,7.35
2023-04-10T06:00:08.364Z,7.57
2023-04-10T06:02:42.458Z,7.18
2023-04-10T06:05:17.289Z,8.10
2023-04-10T06:07:45.929Z,7.90
2023-04-10T06:10:14.636Z,8.57
2023-04-10T06:12:44.864Z,8.82
2023-04-10T06:15:13.760Z,8.43
2023-04-10T06:17:44.753Z,8.65
2023-04-10T06:20:12.352Z,9.05
2023-04-10T06:22:41.391Z,9.05
2023-04-10T06:25:10.079Z,9.02
2023-04-10T06:27:37.537Z,8.73
2023-04-10T06:30:10.087Z,10.05
2023-04-10T06:32:40.540Z,8.27
2023-04-10T06:35:08.437Z,9.10
2023-04-10T06:37:35.545Z,9.73
2023-04-10T06:40:09.347Z,9.60
2023-04-10T06:42:37.481Z,8.93
2023-04-10T06:45:13.480Z,9.15
2023-04-10T06:47:40.888Z,9.60
2023-04-10T06:50:08.040Z,9.02
2023-04-10T06:52:34.975Z,10.00
2023-04-10T06:55:05.335Z,10.25
2023-04-10T06:57:33.608Z,9.68
2023-04-10T07:00:03.206Z,9.77
2023-04-10T07:02:30.855Z,9.98
2023-04-10T07:04:58.040Z,9.13
2023-04-10T07:07:25.784Z,10.45
2023-04-10T07:09:52.800Z,8.77
2023-04-10T07:12:19.714Z,10.13
2023-04-10T07:14:46.921Z,10.00
2023-04-10T07:17:13.944Z,10.00
2023-04-10T07:19:41.106Z,10.60
2023-04-10T07:22:08.843Z,10.18
2023-04-10T07:24:35.802Z,9.32
2023-04-10T07:27:03.661Z,9.27
2023-04-10T07:29:31.462Z,9.82
2023-04-10T07:31:58.924Z,10.23
2023-04-10T07:34:26.059Z,10.70
2023-04-10T07:36:55.447Z,9.48
2023-04-10T07:39:22.533Z,21.45
2023-04-10T07:41:49.448Z,10.93
2023-04-10T07:44:17.711Z,9.82
2023-04-10T07:46:44.833Z,10.05
2023-04-10T07:49:12.529Z,11.15
2023-04-10T07:51:39.712Z,9.85
2023-04-10T07:54:06.711Z,10.10
2023-04-10T07:56:34.207Z,9.88
2023-04-10T07:59:01.575Z,9.95
2023-04-10T08:01:31.836Z,9.68
2023-04-10T08:04:10.682Z,9.70
2023-04-10T08:06:38.068Z,9.48
2023-04-10T08:09:05.267Z,10.23
2023-04-10T08:11:37.951Z,10.07
2023-04-10T08:14:09.066Z,10.30
2023-04-10T08:16:36.931Z,10.10
2023-04-10T08:19:04.408Z,9.95
2023-04-10T08:21:34.514Z,11.23
2023-04-10T08:24:03.110Z,9.70
2023-04-10T08:26:30.316Z,10.15
2023-04-10T08:29:00.059Z,10.73
2023-04-10T08:31:28.552Z,11.05
2023-04-10T08:33:56.867Z,10.45
2023-04-10T08:36:24.499Z,10.25
2023-04-10T08:38:51.439Z,9.55
2023-04-10T08:41:20.094Z,9.30
2023-04-10T08:43:47.603Z,9.48
2023-04-10T08:46:15.181Z,10.15
2023-04-10T08:49:06.326Z,10.07
2023-04-10T08:51:46.267Z,10.38
2023-04-10T08:54:25.602Z,9.23
2023-04-10T08:56:54.246Z,9.77
2023-04-10T08:59:21.540Z,9.07
2023-04-10T09:01:49.493Z,10.02
2023-04-10T09:04:19.791Z,8.85
2023-04-10T09:06:47.075Z,10.07
2023-04-10T09:09:14.077Z,10.48
2023-04-10T09:11:56.140Z,10.52
2023-04-10T09:14:32.035Z,9.57
2023-04-10T09:17:25.132Z,8.55
2023-04-10T09:19:53.916Z,8.77
2023-04-10T09:22:35.740Z,8.18
2023-04-10T09:25:04.419Z,8.57
2023-04-10T09:27:37.287Z,8.07
2023-04-10T09:30:05.571Z,8.98
2023-04-10T09:32:40.513Z,8.38
2023-04-10T09:35:08.866Z,8.60
2023-04-10T09:37:37.022Z,8.60
2023-04-10T09:40:04.897Z,8.05
2023-04-10T09:42:39.590Z,8.57
2023-04-10T09:45:07.116Z,13.77
2023-04-10T09:47:34.470Z,16.98
2023-04-10T09:50:01.969Z,8.65
2023-04-10T09:52:32.313Z,7.28
2023-04-10T09:55:04.784Z,7.38
2023-04-10T09:57:35.084Z,7.70
2023-04-10T10:00:06.127Z,7.50
2023-04-10T10:02:40.105Z,7.18
2023-04-10T10:05:08.363Z,7.85
2023-04-10T10:07:36.030Z,7.55
2023-04-10T10:10:04.018Z,7.07
2023-04-10T10:12:39.991Z,7.32
2023-04-10T10:15:33.175Z,7.32
2023-04-10T10:18:19.038Z,7.13
2023-04-10T10:20:47.170Z,7.45
2023-04-10T10:23:16.201Z,7.22
2023-04-10T10:25:44.857Z,7.30
2023-04-10T10:28:14.777Z,7.57
2023-04-10T10:30:42.684Z,7.40
2023-04-10T10:33:13.960Z,7.65
2023-04-10T10:35:44.570Z,7.63
2023-04-10T10:38:12.966Z,7.05
2023-04-10T10:41:00.100Z,7.30
2023-04-10T10:43:47.455Z,8.10
2023-04-10T10:46:32.999Z,7.72
2023-04-10T10:49:01.066Z,7.85
2023-04-10T10:51:54.697Z,7.88
2023-04-10T10:54:32.537Z,7.85
2023-04-10T10:57:01.523Z,9.18
2023-04-10T10:59:43.669Z,7.72
2023-04-10T11:02:18.324Z,7.93
2023-04-10T11:04:49.338Z,7.45
2023-04-10T11:07:18.927Z,7.65
2023-04-10T11:09:48.972Z,7.07
2023-04-10T11:12:20.978Z,7.82
2023-04-10T11:15:22.951Z,8.23
2023-04-10T11:17:52.321Z,7.07
2023-04-10T11:20:22.397Z,7.32
2023-04-10T11:23:09.650Z,6.85
2023-04-10T11:25:53.721Z,7.00
2023-04-10T11:28:35.589Z,7.03
2023-04-10T11:31:22.881Z,7.35
2023-04-10T11:34:01.817Z,7.28
2023-04-10T11:36:29.568Z,6.13
2023-04-10T11:39:11.368Z,6.80
2023-04-10T11:41:43.367Z,7.03
2023-04-10T11:44:13.110Z,8.43
2023-04-10T11:46:42.353Z,8.10
2023-04-10T11:51:39.023Z,7.57
2023-04-10T11:54:19.573Z,7.05
2023-04-10T11:57:09.688Z,6.60
2023-04-10T11:59:37.524Z,6.72
2023-04-10T12:02:17.322Z,7.05
2023-04-10T12:04:44.989Z,6.95
2023-04-10T12:07:12.228Z,5.78
2023-04-10T12:09:39.418Z,5.85
2023-04-10T12:12:09.584Z,6.20
2023-04-10T12:14:38.816Z,6.25
2023-04-10T12:17:11.934Z,7.53
2023-04-10T12:19:40.318Z,8.27
2023-04-10T12:22:08.075Z,8.40
2023-04-10T12:24:45.169Z,7.68
2023-04-10T12:27:27.479Z,8.88
2023-04-10T12:29:58.704Z,9.05
2023-04-10T12:32:29.772Z,9.40
2023-04-10T12:34:59.336Z,9.45
2023-04-10T12:37:49.317Z,7.53
2023-04-10T12:40:16.821Z,5.32
2023-04-10T12:42:44.565Z,5.03
2023-04-10T12:45:14.152Z,5.15
2023-04-10T12:47:49.953Z,5.40
2023-04-10T12:50:19.623Z,6.03
2023-04-10T12:55:29.407Z,5.30
2023-04-10T12:57:57.582Z,6.65
2023-04-10T13:00:25.878Z,5.97
2023-04-10T13:02:53.596Z,6.43
2023-04-10T13:05:21.834Z,6.70
2023-04-10T13:07:52.802Z,6.78
2023-04-10T13:10:24.680Z,7.28
2023-04-10T13:12:51.785Z,8.15
2023-04-10T13:15:18.911Z,8.23
2023-04-10T13:17:46.410Z,9.00
2023-04-10T13:20:13.755Z,8.07
2023-04-10T13:22:41.034Z,8.88
2023-04-10T13:25:08.700Z,7.85
2023-04-10T13:27:39.273Z,7.10
2023-04-10T13:30:07.131Z,8.20
2023-04-10T13:32:34.196Z,7.75
2023-04-10T13:35:01.327Z,7.80
2023-04-10T13:37:28.493Z,8.52
2023-04-10T13:39:58.571Z,8.35
2023-04-10T13:42:27.044Z,8.60
2023-04-10T13:44:54.183Z,7.63
2023-04-10T13:47:21.238Z,8.88
2023-04-10T13:49:50.912Z,9.45
2023-04-10T13:52:18.445Z,8.57
2023-04-10T13:54:46.017Z,8.23
2023-04-10T13:57:13.030Z,9.20
2023-04-10T13:59:42.960Z,8.63
2023-04-10T14:02:09.929Z,8.57
2023-04-10T14:04:37.239Z,8.52
2023-04-10T14:07:04.251Z,8.27
2023-04-10T14:09:32.324Z,8.82
2023-04-10T14:11:59.620Z,8.05
2023-04-10T14:14:26.573Z,8.10
2023-04-10T14:16:53.484Z,8.82
2023-04-10T14:19:21.312Z,7.82
2023-04-10T14:21:49.525Z,7.90
2023-04-10T14:24:17.405Z,7.57
2023-04-10T14:26:44.441Z,7.05
2023-04-10T14:29:11.542Z,6.63
2023-04-10T14:31:50.680Z,5.72
2023-04-10T14:34:21.886Z,5.68
2023-04-10T14:36:49.251Z,5.05
2023-04-10T14:39:16.589Z,4.72
2023-04-10T14:41:43.704Z,4.88
2023-04-10T14:44:11.022Z,5.57
2023-04-10T14:46:39.579Z,5.47
2023-04-10T14:49:06.948Z,6.25
2023-04-10T14:51:34.258Z,6.60
2023-04-10T14:54:05.623Z,6.72
2023-04-10T14:56:33.147Z,6.95
2023-04-10T14:59:02.037Z,7.50
2023-04-10T15:03:56.662Z,7.72
2023-04-10T15:06:25.142Z,6.28
2023-04-10T15:08:52.296Z,5.68
2023-04-10T15:11:19.340Z,6.18
2023-04-10T15:13:49.319Z,5.97
2023-04-10T15:16:16.863Z,6.35
2023-04-10T15:18:47.212Z,6.43
2023-04-10T15:21:21.346Z,6.88
2023-04-10T15:23:48.698Z,7.13
2023-04-10T15:26:16.921Z,7.10
2023-04-10T15:28:48.631Z,7.80
2023-04-10T15:31:22.971Z,6.97
2023-04-10T15:33:52.319Z,7.22
2023-04-10T15:36:19.598Z,7.78
2023-04-10T15:38:48.730Z,7.18
2023-04-10T15:41:17.271Z,8.38
2023-04-10T15:43:45.154Z,8.00
2023-04-10T15:46:12.629Z,7.85
2023-04-10T15:48:40.461Z,7.40
2023-04-10T15:51:08.047Z,7.22
2023-04-10T15:53:35.896Z,7.75
2023-04-10T15:56:07.437Z,7.63
2023-04-10T15:58:34.795Z,7.90
2023-04-10T16:01:02.444Z,7.75
2023-04-10T16:03:30.604Z,7.78
2023-04-10T16:05:58.539Z,6.95
2023-04-10T16:08:26.529Z,8.32
2023-04-10T16:10:53.958Z,7.50
2023-04-10T16:13:20.993Z,7.40
2023-04-10T16:15:49.776Z,8.48
2023-04-10T16:18:17.178Z,8.82
2023-04-10T16:20:44.370Z,8.25
2023-04-10T16:23:11.572Z,8.38
2023-04-10T16:25:38.579Z,9.20
2023-04-10T16:28:08.053Z,9.02
2023-04-10T16:30:36.487Z,10.25
2023-04-10T16:33:04.711Z,10.25
2023-04-10T16:35:32.956Z,9.70
2023-04-10T16:38:00.062Z,8.95
2023-04-10T16:40:33.012Z,6.38
2023-04-10T16:43:01.997Z,5.72
2023-04-10T16:45:29.172Z,5.88
2023-04-10T16:47:56.482Z,5.03
2023-04-10T16:50:23.784Z,5.72
2023-04-10T16:52:50.869Z,4.82
2023-04-10T16:55:18.356Z,5.07
2023-04-10T16:57:46.389Z,5.00
2023-04-10T17:00:14.014Z,5.18
2023-04-10T17:02:43.136Z,4.38
2023-04-10T17:05:12.945Z,5.05
2023-04-10T17:07:41.390Z,5.05
2023-04-10T17:13:50.269Z,5.47
2023-04-10T17:17:05.275Z,5.68
2023-04-10T17:20:12.414Z,6.70
2023-04-10T17:22:49.104Z,6.85
2023-04-10T17:25:16.372Z,6.38
2023-04-10T17:27:43.354Z,6.38
2023-04-10T17:30:14.098Z,6.75
2023-04-10T17:32:42.071Z,6.63
2023-04-10T17:35:09.319Z,7.82
2023-04-10T17:37:38.308Z,7.57
2023-04-10T17:40:06.484Z,7.75
2023-04-10T17:42:33.696Z,7.45
2023-04-10T17:45:00.844Z,7.68
2023-04-10T17:47:27.949Z,7.75
2023-04-10T17:49:56.076Z,7.38
2023-04-10T17:52:24.080Z,13.82
2023-04-10T17:54:51.038Z,14.40
2023-04-10T17:57:18.255Z,14.07
2023-04-10T17:59:45.448Z,11.48
2023-04-10T18:02:12.629Z,10.50
2023-04-10T18:04:39.756Z,10.23
2023-04-10T18:07:07.182Z,10.13
2023-04-10T18:09:34.398Z,11.57
2023-04-10T18:12:02.305Z,11.65
2023-04-10T18:14:29.374Z,10.80
2023-04-10T18:16:59.372Z,11.13
2023-04-10T18:19:59.829Z,12.95
2023-04-10T18:22:28.835Z,11.75
2023-04-10T18:24:55.916Z,12.82
2023-04-10T18:27:23.162Z,11.38
2023-04-10T18:29:50.293Z,12.13
2023-04-10T18:32:17.309Z,11.55
2023-04-10T18:34:44.606Z,11.82
2023-04-10T18:37:11.950Z,11.80
2023-04-10T18:39:39.121Z,12.02
2023-04-10T18:42:10.612Z,14.93
2023-04-10T18:44:38.029Z,12.30
2023-04-10T18:47:05.631Z,12.45
2023-04-10T18:49:33.203Z,12.70
2023-04-10T18:52:00.803Z,13.10
2023-04-10T18:54:29.174Z,13.88
2023-04-10T18:56:56.851Z,14.48
2023-04-10T18:59:24.195Z,13.90
2023-04-10T19:01:51.565Z,14.40
2023-04-10T19:04:18.643Z,14.23
2023-04-10T19:06:46.527Z,14.75
2023-04-10T19:09:14.073Z,13.48
2023-04-10T19:11:41.288Z,15.45
2023-04-10T19:14:08.916Z,16.95
2023-04-10T19:16:36.277Z,15.77
2023-04-10T19:19:03.656Z,15.60
2023-04-10T19:21:32.025Z,16.27
2023-04-10T19:23:59.533Z,15.57
2023-04-10T19:26:26.818Z,15.15
2023-04-10T19:28:55.189Z,15.00
2023-04-10T19:31:38.200Z,13.63
2023-04-10T19:34:09.480Z,11.73
2023-04-10T19:36:37.953Z,11.13
2023-04-10T19:39:05.436Z,10.00
2023-04-10T19:41:32.419Z,10.50
2023-04-10T19:43:59.653Z,10.90
2023-04-10T19:46:27.322Z,10.52
2023-04-10T19:48:54.844Z,9.93
2023-04-10T19:51:22.048Z,9.95
2023-04-10T19:53:49.582Z,10.50
2023-04-10T19:56:19.639Z,9.82
2023-04-10T19:58:47.515Z,10.55
2023-04-10T20:01:14.659Z,10.30
2023-04-10T20:03:42.276Z,11.05
2023-04-10T20:06:10.484Z,10.82
2023-04-10T20:08:37.934Z,10.77
2023-04-10T20:11:06.735Z,10.60
2023-04-10T20:13:34.955Z,10.75
2023-04-10T20:16:03.008Z,11.15
2023-04-10T20:18:31.934Z,11.70
2023-04-10T20:20:59.138Z,11.50
2023-04-10T20:23:26.435Z,11.90
2023-04-10T20:25:56.098Z,11.27
2023-04-10T20:28:23.428Z,11.95
2023-04-10T20:30:50.949Z,12.57
2023-04-10T20:33:18.300Z,11.50
2023-04-10T20:35:46.051Z,12.07
2023-04-10T20:38:13.758Z,12.77
2023-04-10T20:40:41.037Z,12.07
2023-04-10T20:43:11.884Z,12.27
2023-04-10T20:45:40.052Z,12.32
2023-04-10T20:48:08.580Z,12.20
2023-04-10T20:50:37.391Z,12.27
2023-04-10T20:53:04.566Z,12.77
2023-04-10T20:55:31.631Z,14.40
2023-04-10T20:57:59.060Z,13.02
2023-04-10T21:00:26.379Z,14.07
2023-04-10T21:02:53.573Z,13.85
2023-04-10T21:05:20.690Z,14.50
2023-04-10T21:07:47.883Z,14.13
2023-04-10T21:10:15.743Z,14.57
2023-04-10T21:12:43.103Z,16.80
2023-04-10T21:15:10.463Z,17.20
2023-04-10T21:17:37.821Z,18.90
2023-04-10T21:20:05.576Z,18.05
2023-04-10T21:22:36.445Z,18.27
2023-04-10T21:25:03.599Z,14.48
2023-04-10T21:27:30.856Z,15.82
2023-04-10T21:29:57.939Z,14.82
2023-04-10T21:32:25.054Z,13.18
2023-04-10T21:34:52.129Z,13.35
2023-04-10T21:37:19.036Z,12.40
2023-04-10T21:39:46.574Z,11.98
2023-04-10T21:42:13.845Z,11.23
2023-04-10T21:44:40.947Z,12.00
2023-04-10T21:47:07.883Z,12.07
2023-04-10T21:49:37.657Z,11.15
2023-04-10T21:52:06.888Z,11.00
2023-04-10T21:57:01.023Z,11.50
2023-04-10T21:59:28.071Z,12.57
2023-04-10T22:01:55.282Z,11.45
2023-04-10T22:04:22.808Z,11.77
2023-04-10T22:06:50.096Z,12.73
2023-04-10T22:09:17.895Z,11.10
2023-04-10T22:11:45.072Z,11.98
2023-04-10T22:14:17.170Z,12.50
2023-04-10T22:16:45.916Z,12.30
2023-04-10T22:19:12.986Z,11.68
2023-04-10T22:21:39.817Z,11.88
2023-04-10T22:24:07.308Z,12.05
2023-04-10T22:26:34.972Z,11.85
2023-04-10T22:29:03.932Z,11.63
2023-04-10T22:31:31.194Z,12.38
2023-04-10T22:33:58.417Z,11.60
2023-04-10T22:36:31.746Z,11.65
2023-04-10T22:38:58.895Z,11.55
2023-04-10T22:41:26.168Z,10.85
2023-04-10T22:43:53.355Z,10.65
2023-04-10T22:46:20.388Z,9.75
2023-04-10T22:48:47.500Z,9.63
2023-04-10T22:51:15.516Z,10.18
2023-04-10T22:53:42.626Z,10.48
2023-04-10T22:56:10.708Z,10.02
2023-04-10T22:58:42.241Z,10.50
2023-04-10T23:01:11.757Z,11.13
2023-04-10T23:03:38.902Z,9.93
2023-04-10T23:06:07.497Z,9.65
2023-04-10T23:08:34.943Z,10.82
2023-04-10T23:11:01.855Z,9.27
2023-04-10T23:13:28.827Z,8.88
2023-04-10T23:15:56.693Z,9.52
2023-04-10T23:18:26.476Z,10.07
2023-04-10T23:20:53.553Z,9.32
2023-04-10T23:23:20.930Z,9.70
2023-04-10T23:25:47.921Z,9.38
2023-04-10T23:28:14.915Z,9.70
2023-04-10T23:30:42.763Z,9.20
2023-04-10T23:33:09.704Z,9.65
2023-04-10T23:35:36.752Z,9.55
2023-04-10T23:38:03.841Z,10.00
2023-04-10T23:40:30.909Z,9.68
2023-04-10T23:42:57.962Z,9.57
2023-04-10T23:45:25.097Z,9.63
2023-04-10T23:47:52.114Z,8.80
2023-04-10T23:50:19.708Z,9.43
2023-04-10T23:52:50.770Z,9.23
2023-04-10T23:55:18.560Z,9.98
2023-04-10T23:57:45.760Z,10.02
